sensor_id;sensor_type;location;lat;lon;timestamp;temperature;humidity
1812;DHT22;904;47.814;11.134;2023-02-28T00:01:33;-1.50;74.40
1812;DHT22;904;47.814;11.134;2023-02-28T00:04:00;-1.50;74.40
1812;DHT22;904;47.814;11.134;2023-02-28T00:06:28;-1.50;74.30
1812;DHT22;904;47.814;11.134;2023-02-28T00:08:55;-1.50;74.30
1812;DHT22;904;47.814;11.134;2023-02-28T00:11:22;-1.60;74.40
1812;DHT22;904;47.814;11.134;2023-02-28T00:13:49;-1.60;74.60
1812;DHT22;904;47.814;11.134;2023-02-28T00:16:19;-1.60;74.70
1812;DHT22;904;47.814;11.134;2023-02-28T00:18:46;-1.60;74.50
1812;DHT22;904;47.814;11.134;2023-02-28T00:21:14;-1.60;74.50
1812;DHT22;904;47.814;11.134;2023-02-28T00:23:42;-1.70;74.30
1812;DHT22;904;47.814;11.134;2023-02-28T00:26:10;-1.70;73.70
1812;DHT22;904;47.814;11.134;2023-02-28T00:28:37;-1.70;73.50
1812;DHT22;904;47.814;11.134;2023-02-28T00:31:04;-1.80;73.50
1812;DHT22;904;47.814;11.134;2023-02-28T00:33:31;-1.90;73.90
1812;DHT22;904;47.814;11.134;2023-02-28T00:36:03;-1.90;74.10
1812;DHT22;904;47.814;11.134;2023-02-28T00:38:30;-1.90;74.60
1812;DHT22;904;47.814;11.134;2023-02-28T00:40:59;-2.00;75.00
1812;DHT22;904;47.814;11.134;2023-02-28T00:43:31;-2.10;74.30
1812;DHT22;904;47.814;11.134;2023-02-28T00:45:58;-2.10;74.20
1812;DHT22;904;47.814;11.134;2023-02-28T00:48:25;-2.20;74.30
1812;DHT22;904;47.814;11.134;2023-02-28T00:50:52;-2.20;73.90
1812;DHT22;904;47.814;11.134;2023-02-28T00:53:19;-2.20;73.60
1812;DHT22;904;47.814;11.134;2023-02-28T00:55:46;-2.30;73.40
1812;DHT22;904;47.814;11.134;2023-02-28T00:58:14;-2.40;73.60
1812;DHT22;904;47.814;11.134;2023-02-28T01:00:41;-2.50;73.50
1812;DHT22;904;47.814;11.134;2023-02-28T01:03:08;-2.50;74.30
1812;DHT22;904;47.814;11.134;2023-02-28T01:05:35;-2.50;74.10
1812;DHT22;904;47.814;11.134;2023-02-28T01:08:02;-2.50;74.20
1812;DHT22;904;47.814;11.134;2023-02-28T01:10:29;-2.60;73.60
1812;DHT22;904;47.814;11.134;2023-02-28T01:12:57;-2.60;73.90
1812;DHT22;904;47.814;11.134;2023-02-28T01:15:25;-2.60;74.40
1812;DHT22;904;47.814;11.134;2023-02-28T01:17:52;-2.70;74.40
1812;DHT22;904;47.814;11.134;2023-02-28T01:20:19;-2.70;73.90
1812;DHT22;904;47.814;11.134;2023-02-28T01:22:46;-2.80;74.70
1812;DHT22;904;47.814;11.134;2023-02-28T01:25:13;-2.80;73.90
1812;DHT22;904;47.814;11.134;2023-02-28T01:27:40;-2.90;74.50
1812;DHT22;904;47.814;11.134;2023-02-28T01:30:08;-2.90;74.50
1812;DHT22;904;47.814;11.134;2023-02-28T01:32:37;-3.00;74.30
1812;DHT22;904;47.814;11.134;2023-02-28T01:35:04;-3.00;74.10
1812;DHT22;904;47.814;11.134;2023-02-28T01:37:31;-3.00;73.90
1812;DHT22;904;47.814;11.134;2023-02-28T01:39:58;-3.10;74.40
1812;DHT22;904;47.814;11.134;2023-02-28T01:42:25;-3.10;74.70
1812;DHT22;904;47.814;11.134;2023-02-28T01:45:01;-3.10;75.00
1812;DHT22;904;47.814;11.134;2023-02-28T01:47:32;-3.10;75.00
1812;DHT22;904;47.814;11.134;2023-02-28T01:50:04;-3.20;74.40
1812;DHT22;904;47.814;11.134;2023-02-28T01:52:32;-3.30;73.80
1812;DHT22;904;47.814;11.134;2023-02-28T01:55:01;-3.30;73.70
1812;DHT22;904;47.814;11.134;2023-02-28T01:57:30;-3.30;73.70
1812;DHT22;904;47.814;11.134;2023-02-28T02:00:06;-3.40;74.00
1812;DHT22;904;47.814;11.134;2023-02-28T02:02:35;-3.40;74.20
1812;DHT22;904;47.814;11.134;2023-02-28T02:05:06;-3.40;74.60
1812;DHT22;904;47.814;11.134;2023-02-28T02:07:36;-3.50;74.60
1812;DHT22;904;47.814;11.134;2023-02-28T02:10:06;-3.50;74.90
1812;DHT22;904;47.814;11.134;2023-02-28T02:12:57;-3.60;75.30
1812;DHT22;904;47.814;11.134;2023-02-28T02:15:32;-3.60;75.30
1812;DHT22;904;47.814;11.134;2023-02-28T02:18:05;-3.60;75.00
1812;DHT22;904;47.814;11.134;2023-02-28T02:29:56;-3.70;75.20
1812;DHT22;904;47.814;11.134;2023-02-28T02:35:31;-3.80;75.80
1812;DHT22;904;47.814;11.134;2023-02-28T02:38:06;-3.90;74.40
1812;DHT22;904;47.814;11.134;2023-02-28T02:40:51;-3.90;75.00
1812;DHT22;904;47.814;11.134;2023-02-28T02:43:26;-3.90;75.40
1812;DHT22;904;47.814;11.134;2023-02-28T02:45:58;-4.00;74.70
1812;DHT22;904;47.814;11.134;2023-02-28T02:48:29;-4.00;74.70
1812;DHT22;904;47.814;11.134;2023-02-28T02:51:02;-4.00;75.00
1812;DHT22;904;47.814;11.134;2023-02-28T02:53:35;-4.10;75.90
1812;DHT22;904;47.814;11.134;2023-02-28T02:56:05;-4.10;76.10
1812;DHT22;904;47.814;11.134;2023-02-28T02:58:37;-4.10;75.60
1812;DHT22;904;47.814;11.134;2023-02-28T03:01:08;-4.20;75.70
1812;DHT22;904;47.814;11.134;2023-02-28T03:03:37;-4.20;76.20
1812;DHT22;904;47.814;11.134;2023-02-28T03:06:05;-4.20;76.30
1812;DHT22;904;47.814;11.134;2023-02-28T03:08:35;-4.20;75.90
1812;DHT22;904;47.814;11.134;2023-02-28T03:11:04;-4.20;76.10
1812;DHT22;904;47.814;11.134;2023-02-28T03:13:51;-4.30;74.60
1812;DHT22;904;47.814;11.134;2023-02-28T03:19:49;-4.30;74.70
1812;DHT22;904;47.814;11.134;2023-02-28T03:25:21;-4.50;75.30
1812;DHT22;904;47.814;11.134;2023-02-28T03:27:57;-4.50;75.50
1812;DHT22;904;47.814;11.134;2023-02-28T03:30:33;-4.50;75.60
1812;DHT22;904;47.814;11.134;2023-02-28T03:33:10;-4.50;74.10
1812;DHT22;904;47.814;11.134;2023-02-28T03:35:42;-4.50;73.70
1812;DHT22;904;47.814;11.134;2023-02-28T03:38:15;-4.50;73.90
1812;DHT22;904;47.814;11.134;2023-02-28T03:40:47;-4.50;73.90
1812;DHT22;904;47.814;11.134;2023-02-28T03:43:21;-4.60;73.80
1812;DHT22;904;47.814;11.134;2023-02-28T03:45:50;-4.60;73.80
1812;DHT22;904;47.814;11.134;2023-02-28T03:48:21;-4.60;74.30
1812;DHT22;904;47.814;11.134;2023-02-28T03:50:53;-4.60;73.90
1812;DHT22;904;47.814;11.134;2023-02-28T03:53:25;-4.70;73.70
1812;DHT22;904;47.814;11.134;2023-02-28T03:55:57;-4.70;74.80
1812;DHT22;904;47.814;11.134;2023-02-28T03:58:29;-4.70;75.20
1812;DHT22;904;47.814;11.134;2023-02-28T04:01:01;-4.70;75.00
1812;DHT22;904;47.814;11.134;2023-02-28T04:03:34;-4.70;75.20
1812;DHT22;904;47.814;11.134;2023-02-28T04:06:02;-4.70;75.30
1812;DHT22;904;47.814;11.134;2023-02-28T04:08:30;-4.80;76.40
1812;DHT22;904;47.814;11.134;2023-02-28T04:11:00;-4.80;76.80
1812;DHT22;904;47.814;11.134;2023-02-28T04:13:28;-4.80;76.90
1812;DHT22;904;47.814;11.134;2023-02-28T04:15:55;-4.80;77.60
1812;DHT22;904;47.814;11.134;2023-02-28T04:18:22;-4.80;78.30
1812;DHT22;904;47.814;11.134;2023-02-28T04:20:49;-4.70;78.90
1812;DHT22;904;47.814;11.134;2023-02-28T04:23:16;-4.70;78.80
1812;DHT22;904;47.814;11.134;2023-02-28T04:25:44;-4.70;77.80
1812;DHT22;904;47.814;11.134;2023-02-28T04:28:11;-4.80;76.90
1812;DHT22;904;47.814;11.134;2023-02-28T04:30:38;-4.80;76.70
1812;DHT22;904;47.814;11.134;2023-02-28T04:33:05;-4.80;76.30
1812;DHT22;904;47.814;11.134;2023-02-28T04:35:32;-4.90;75.80
1812;DHT22;904;47.814;11.134;2023-02-28T04:37:59;-4.90;76.10
1812;DHT22;904;47.814;11.134;2023-02-28T04:40:26;-4.90;75.50
1812;DHT22;904;47.814;11.134;2023-02-28T04:42:55;-4.90;75.50
1812;DHT22;904;47.814;11.134;2023-02-28T04:45:21;-4.90;76.00
1812;DHT22;904;47.814;11.134;2023-02-28T04:47:48;-4.90;76.10
1812;DHT22;904;47.814;11.134;2023-02-28T04:50:16;-4.90;76.20
1812;DHT22;904;47.814;11.134;2023-02-28T04:52:43;-4.90;76.60
1812;DHT22;904;47.814;11.134;2023-02-28T04:55:10;-4.90;76.40
1812;DHT22;904;47.814;11.134;2023-02-28T04:57:37;-4.90;76.10
1812;DHT22;904;47.814;11.134;2023-02-28T05:00:06;-4.90;75.80
1812;DHT22;904;47.814;11.134;2023-02-28T05:02:37;-5.00;76.20
1812;DHT22;904;47.814;11.134;2023-02-28T05:05:05;-4.90;76.50
1812;DHT22;904;47.814;11.134;2023-02-28T05:07:32;-5.00;76.30
1812;DHT22;904;47.814;11.134;2023-02-28T05:09:59;-5.00;76.40
1812;DHT22;904;47.814;11.134;2023-02-28T05:12:26;-5.00;76.20
1812;DHT22;904;47.814;11.134;2023-02-28T05:14:53;-4.90;75.80
1812;DHT22;904;47.814;11.134;2023-02-28T05:17:21;-4.90;75.40
1812;DHT22;904;47.814;11.134;2023-02-28T05:19:48;-4.90;75.60
1812;DHT22;904;47.814;11.134;2023-02-28T05:22:15;-4.90;75.50
1812;DHT22;904;47.814;11.134;2023-02-28T05:24:42;-4.90;75.40
1812;DHT22;904;47.814;11.134;2023-02-28T05:27:10;-4.90;74.30
1812;DHT22;904;47.814;11.134;2023-02-28T05:29:37;-4.90;74.10
1812;DHT22;904;47.814;11.134;2023-02-28T05:32:09;-4.90;73.90
1812;DHT22;904;47.814;11.134;2023-02-28T05:34:38;-4.90;74.50
1812;DHT22;904;47.814;11.134;2023-02-28T05:37:07;-4.90;75.10
1812;DHT22;904;47.814;11.134;2023-02-28T05:39:37;-4.90;75.10
1812;DHT22;904;47.814;11.134;2023-02-28T05:42:04;-4.90;74.60
1812;DHT22;904;47.814;11.134;2023-02-28T05:44:32;-4.80;74.80
1812;DHT22;904;47.814;11.134;2023-02-28T05:46:59;-4.80;75.10
1812;DHT22;904;47.814;11.134;2023-02-28T05:49:26;-4.70;75.30
1812;DHT22;904;47.814;11.134;2023-02-28T05:51:55;-4.70;75.10
1812;DHT22;904;47.814;11.134;2023-02-28T05:54:22;-4.60;75.10
1812;DHT22;904;47.814;11.134;2023-02-28T05:56:49;-4.60;75.70
1812;DHT22;904;47.814;11.134;2023-02-28T05:59:16;-4.50;76.40
1812;DHT22;904;47.814;11.134;2023-02-28T06:01:45;-4.40;76.60
1812;DHT22;904;47.814;11.134;2023-02-28T06:04:14;-4.30;76.80
1812;DHT22;904;47.814;11.134;2023-02-28T06:06:43;-4.30;77.30
1812;DHT22;904;47.814;11.134;2023-02-28T06:09:13;-4.20;78.00
1812;DHT22;904;47.814;11.134;2023-02-28T06:11:42;-4.10;78.00
1812;DHT22;904;47.814;11.134;2023-02-28T06:14:15;-4.10;78.10
1812;DHT22;904;47.814;11.134;2023-02-28T06:16:42;-4.00;78.10
1812;DHT22;904;47.814;11.134;2023-02-28T06:19:10;-4.00;78.30
1812;DHT22;904;47.814;11.134;2023-02-28T06:21:38;-3.90;78.20
1812;DHT22;904;47.814;11.134;2023-02-28T06:24:06;-3.90;77.80
1812;DHT22;904;47.814;11.134;2023-02-28T06:26:35;-3.70;77.80
1812;DHT22;904;47.814;11.134;2023-02-28T06:29:02;-3.70;77.70
1812;DHT22;904;47.814;11.134;2023-02-28T06:31:30;-3.60;77.70
1812;DHT22;904;47.814;11.134;2023-02-28T06:33:57;-3.50;78.90
1812;DHT22;904;47.814;11.134;2023-02-28T06:36:24;-3.40;79.90
1812;DHT22;904;47.814;11.134;2023-02-28T06:38:51;-3.20;80.30
1812;DHT22;904;47.814;11.134;2023-02-28T06:41:22;-3.00;81.40
1812;DHT22;904;47.814;11.134;2023-02-28T06:43:51;-2.90;82.20
1812;DHT22;904;47.814;11.134;2023-02-28T06:46:19;-2.80;83.00
1812;DHT22;904;47.814;11.134;2023-02-28T06:48:46;-2.70;83.20
1812;DHT22;904;47.814;11.134;2023-02-28T06:51:14;-2.50;83.10
1812;DHT22;904;47.814;11.134;2023-02-28T06:53:42;-2.40;82.80
1812;DHT22;904;47.814;11.134;2023-02-28T06:56:11;-2.30;82.80
1812;DHT22;904;47.814;11.134;2023-02-28T06:58:38;-2.20;82.40
1812;DHT22;904;47.814;11.134;2023-02-28T07:01:07;-2.10;81.70
1812;DHT22;904;47.814;11.134;2023-02-28T07:03:35;-2.00;81.30
1812;DHT22;904;47.814;11.134;2023-02-28T07:06:04;-1.80;80.70
1812;DHT22;904;47.814;11.134;2023-02-28T07:08:31;-1.60;79.70
1812;DHT22;904;47.814;11.134;2023-02-28T07:10:59;-1.60;79.40
1812;DHT22;904;47.814;11.134;2023-02-28T07:13:26;-1.50;79.80
1812;DHT22;904;47.814;11.134;2023-02-28T07:15:54;-1.40;79.10
1812;DHT22;904;47.814;11.134;2023-02-28T07:18:22;-1.30;79.10
1812;DHT22;904;47.814;11.134;2023-02-28T07:20:49;-1.20;78.30
1812;DHT22;904;47.814;11.134;2023-02-28T07:23:17;-1.10;77.80
1812;DHT22;904;47.814;11.134;2023-02-28T07:25:44;-1.10;77.50
1812;DHT22;904;47.814;11.134;2023-02-28T07:28:12;-1.10;77.50
1812;DHT22;904;47.814;11.134;2023-02-28T07:30:39;-1.10;77.30
1812;DHT22;904;47.814;11.134;2023-02-28T07:33:07;-1.10;76.60
1812;DHT22;904;47.814;11.134;2023-02-28T07:35:35;-1.10;76.80
1812;DHT22;904;47.814;11.134;2023-02-28T07:38:03;-1.00;76.40
1812;DHT22;904;47.814;11.134;2023-02-28T07:40:30;-0.90;76.00
1812;DHT22;904;47.814;11.134;2023-02-28T07:42:58;-0.90;75.80
1812;DHT22;904;47.814;11.134;2023-02-28T07:45:25;-0.80;76.20
1812;DHT22;904;47.814;11.134;2023-02-28T07:47:54;-0.80;75.80
1812;DHT22;904;47.814;11.134;2023-02-28T07:50:21;-0.70;76.20
1812;DHT22;904;47.814;11.134;2023-02-28T07:52:50;-0.70;76.40
1812;DHT22;904;47.814;11.134;2023-02-28T07:55:17;-0.60;75.80
1812;DHT22;904;47.814;11.134;2023-02-28T07:57:43;-0.50;75.70
1812;DHT22;904;47.814;11.134;2023-02-28T08:00:12;-0.40;74.70
1812;DHT22;904;47.814;11.134;2023-02-28T08:02:39;-0.40;74.20
1812;DHT22;904;47.814;11.134;2023-02-28T08:05:07;-0.40;74.10
1812;DHT22;904;47.814;11.134;2023-02-28T08:07:34;-0.30;73.30
1812;DHT22;904;47.814;11.134;2023-02-28T08:10:03;-0.30;73.00
1812;DHT22;904;47.814;11.134;2023-02-28T08:12:31;-0.20;73.30
1812;DHT22;904;47.814;11.134;2023-02-28T08:14:58;-0.20;73.00
1812;DHT22;904;47.814;11.134;2023-02-28T08:17:25;-0.20;72.60
1812;DHT22;904;47.814;11.134;2023-02-28T08:19:51;-0.20;72.70
1812;DHT22;904;47.814;11.134;2023-02-28T08:22:18;-0.10;72.60
1812;DHT22;904;47.814;11.134;2023-02-28T08:24:45;-0.10;72.30
1812;DHT22;904;47.814;11.134;2023-02-28T08:27:14;0.00;71.40
1812;DHT22;904;47.814;11.134;2023-02-28T08:29:41;0.00;71.70
1812;DHT22;904;47.814;11.134;2023-02-28T08:32:07;0.10;70.90
1812;DHT22;904;47.814;11.134;2023-02-28T08:34:34;0.10;71.30
1812;DHT22;904;47.814;11.134;2023-02-28T08:37:01;0.10;71.30
1812;DHT22;904;47.814;11.134;2023-02-28T08:39:28;0.10;70.80
1812;DHT22;904;47.814;11.134;2023-02-28T08:41:55;0.10;70.60
1812;DHT22;904;47.814;11.134;2023-02-28T08:44:23;0.10;71.00
1812;DHT22;904;47.814;11.134;2023-02-28T08:46:50;0.20;71.30
1812;DHT22;904;47.814;11.134;2023-02-28T08:49:17;0.20;70.90
1812;DHT22;904;47.814;11.134;2023-02-28T08:51:44;0.20;70.80
1812;DHT22;904;47.814;11.134;2023-02-28T08:54:11;0.30;70.00
1812;DHT22;904;47.814;11.134;2023-02-28T08:56:40;0.30;70.00
1812;DHT22;904;47.814;11.134;2023-02-28T08:59:09;0.30;70.40
1812;DHT22;904;47.814;11.134;2023-02-28T09:01:37;0.30;69.90
1812;DHT22;904;47.814;11.134;2023-02-28T09:04:04;0.40;70.10
1812;DHT22;904;47.814;11.134;2023-02-28T09:06:34;0.40;70.10
1812;DHT22;904;47.814;11.134;2023-02-28T09:09:01;0.50;69.70
1812;DHT22;904;47.814;11.134;2023-02-28T09:11:30;0.50;69.80
1812;DHT22;904;47.814;11.134;2023-02-28T09:13:57;0.60;69.80
1812;DHT22;904;47.814;11.134;2023-02-28T09:16:25;0.60;70.00
1812;DHT22;904;47.814;11.134;2023-02-28T09:18:54;0.60;69.70
1812;DHT22;904;47.814;11.134;2023-02-28T09:21:21;0.70;69.60
1812;DHT22;904;47.814;11.134;2023-02-28T09:23:49;0.80;69.40
1812;DHT22;904;47.814;11.134;2023-02-28T09:26:18;0.90;69.10
1812;DHT22;904;47.814;11.134;2023-02-28T09:28:45;0.90;69.00
1812;DHT22;904;47.814;11.134;2023-02-28T09:31:14;1.00;69.40
1812;DHT22;904;47.814;11.134;2023-02-28T09:33:41;1.10;68.60
1812;DHT22;904;47.814;11.134;2023-02-28T09:36:09;1.20;68.10
1812;DHT22;904;47.814;11.134;2023-02-28T09:38:36;1.30;67.70
1812;DHT22;904;47.814;11.134;2023-02-28T09:41:10;1.30;67.40
1812;DHT22;904;47.814;11.134;2023-02-28T09:43:40;1.40;67.20
1812;DHT22;904;47.814;11.134;2023-02-28T09:46:15;1.40;66.70
1812;DHT22;904;47.814;11.134;2023-02-28T09:48:45;1.50;66.00
1812;DHT22;904;47.814;11.134;2023-02-28T09:51:30;1.50;65.70
1812;DHT22;904;47.814;11.134;2023-02-28T09:53:59;1.60;65.40
1812;DHT22;904;47.814;11.134;2023-02-28T09:56:31;1.50;65.60
1812;DHT22;904;47.814;11.134;2023-02-28T09:59:02;1.60;65.90
1812;DHT22;904;47.814;11.134;2023-02-28T10:01:37;1.60;65.90
1812;DHT22;904;47.814;11.134;2023-02-28T10:04:09;1.70;65.20
1812;DHT22;904;47.814;11.134;2023-02-28T10:06:45;1.70;65.40
1812;DHT22;904;47.814;11.134;2023-02-28T10:09:15;1.80;65.10
1812;DHT22;904;47.814;11.134;2023-02-28T10:11:46;1.90;64.80
1812;DHT22;904;47.814;11.134;2023-02-28T10:14:17;2.00;64.80
1812;DHT22;904;47.814;11.134;2023-02-28T10:16:48;2.00;64.10
1812;DHT22;904;47.814;11.134;2023-02-28T10:19:21;2.00;64.00
1812;DHT22;904;47.814;11.134;2023-02-28T10:21:54;2.10;63.70
1812;DHT22;904;47.814;11.134;2023-02-28T10:24:28;2.10;63.80
1812;DHT22;904;47.814;11.134;2023-02-28T10:27:00;2.20;63.30
1812;DHT22;904;47.814;11.134;2023-02-28T10:29:27;2.20;62.80
1812;DHT22;904;47.814;11.134;2023-02-28T10:32:01;2.20;62.80
1812;DHT22;904;47.814;11.134;2023-02-28T10:34:28;2.20;63.10
1812;DHT22;904;47.814;11.134;2023-02-28T10:36:59;2.20;62.20
1812;DHT22;904;47.814;11.134;2023-02-28T10:39:40;2.20;62.00
1812;DHT22;904;47.814;11.134;2023-02-28T10:42:20;2.20;62.10
1812;DHT22;904;47.814;11.134;2023-02-28T10:44:48;2.30;62.50
1812;DHT22;904;47.814;11.134;2023-02-28T10:47:16;2.30;62.00
1812;DHT22;904;47.814;11.134;2023-02-28T10:49:47;2.30;62.00
1812;DHT22;904;47.814;11.134;2023-02-28T10:52:33;2.30;62.50
1812;DHT22;904;47.814;11.134;2023-02-28T10:55:16;2.40;62.10
1812;DHT22;904;47.814;11.134;2023-02-28T10:57:43;2.40;62.20
1812;DHT22;904;47.814;11.134;2023-02-28T11:00:16;2.40;61.70
1812;DHT22;904;47.814;11.134;2023-02-28T11:02:44;2.40;61.70
1812;DHT22;904;47.814;11.134;2023-02-28T11:05:24;2.50;61.80
1812;DHT22;904;47.814;11.134;2023-02-28T11:07:54;2.50;62.20
1812;DHT22;904;47.814;11.134;2023-02-28T11:10:30;2.60;61.50
1812;DHT22;904;47.814;11.134;2023-02-28T11:13:01;2.60;61.80
1812;DHT22;904;47.814;11.134;2023-02-28T11:15:30;2.70;61.40
1812;DHT22;904;47.814;11.134;2023-02-28T11:18:01;2.70;60.30
1812;DHT22;904;47.814;11.134;2023-02-28T11:20:30;2.60;60.30
1812;DHT22;904;47.814;11.134;2023-02-28T11:23:01;2.60;60.00
1812;DHT22;904;47.814;11.134;2023-02-28T11:25:31;2.60;59.90
1812;DHT22;904;47.814;11.134;2023-02-28T11:27:59;2.60;59.90
1812;DHT22;904;47.814;11.134;2023-02-28T11:30:33;2.60;59.20
1812;DHT22;904;47.814;11.134;2023-02-28T11:33:01;2.60;59.10
1812;DHT22;904;47.814;11.134;2023-02-28T11:35:44;2.50;59.30
1812;DHT22;904;47.814;11.134;2023-02-28T11:38:13;2.60;59.90
1812;DHT22;904;47.814;11.134;2023-02-28T11:40:49;2.50;59.80
1812;DHT22;904;47.814;11.134;2023-02-28T11:43:30;2.50;60.10
1812;DHT22;904;47.814;11.134;2023-02-28T11:46:10;2.40;60.40
1812;DHT22;904;47.814;11.134;2023-02-28T11:48:46;2.30;61.30
1812;DHT22;904;47.814;11.134;2023-02-28T11:51:21;2.30;61.70
1812;DHT22;904;47.814;11.134;2023-02-28T11:54:04;2.40;61.90
1812;DHT22;904;47.814;11.134;2023-02-28T11:56:37;2.50;62.00
1812;DHT22;904;47.814;11.134;2023-02-28T11:59:28;2.50;61.20
1812;DHT22;904;47.814;11.134;2023-02-28T12:02:23;2.50;61.30
1812;DHT22;904;47.814;11.134;2023-02-28T12:04:59;2.60;61.30
1812;DHT22;904;47.814;11.134;2023-02-28T12:07:33;2.70;61.10
1812;DHT22;904;47.814;11.134;2023-02-28T12:10:12;2.70;60.80
1812;DHT22;904;47.814;11.134;2023-02-28T12:12:49;2.80;60.90
1812;DHT22;904;47.814;11.134;2023-02-28T12:15:43;2.80;60.20
1812;DHT22;904;47.814;11.134;2023-02-28T12:18:43;2.80;60.00
1812;DHT22;904;47.814;11.134;2023-02-28T12:21:18;2.90;60.00
1812;DHT22;904;47.814;11.134;2023-02-28T12:24:04;3.00;59.80
1812;DHT22;904;47.814;11.134;2023-02-28T12:26:39;3.10;59.60
1812;DHT22;904;47.814;11.134;2023-02-28T12:29:14;3.10;59.20
1812;DHT22;904;47.814;11.134;2023-02-28T12:31:46;3.10;59.00
1812;DHT22;904;47.814;11.134;2023-02-28T12:34:19;3.10;59.10
1812;DHT22;904;47.814;11.134;2023-02-28T12:36:48;3.20;59.60
1812;DHT22;904;47.814;11.134;2023-02-28T12:39:19;3.20;59.00
1812;DHT22;904;47.814;11.134;2023-02-28T12:41:52;3.20;58.90
1812;DHT22;904;47.814;11.134;2023-02-28T12:44:24;3.20;58.80
1812;DHT22;904;47.814;11.134;2023-02-28T12:46:56;3.20;58.80
1812;DHT22;904;47.814;11.134;2023-02-28T12:49:28;3.20;58.80
1812;DHT22;904;47.814;11.134;2023-02-28T12:51:58;3.20;58.40
1812;DHT22;904;47.814;11.134;2023-02-28T12:54:29;3.20;58.90
1812;DHT22;904;47.814;11.134;2023-02-28T12:57:05;3.20;59.10
1812;DHT22;904;47.814;11.134;2023-02-28T12:59:37;3.30;59.00
1812;DHT22;904;47.814;11.134;2023-02-28T13:05:26;3.30;58.80
1812;DHT22;904;47.814;11.134;2023-02-28T13:10:53;3.30;59.30
1812;DHT22;904;47.814;11.134;2023-02-28T13:13:24;3.40;59.30
1812;DHT22;904;47.814;11.134;2023-02-28T13:16:00;3.40;58.90
1812;DHT22;904;47.814;11.134;2023-02-28T13:18:33;3.40;58.60
1812;DHT22;904;47.814;11.134;2023-02-28T13:21:03;3.30;58.40
1812;DHT22;904;47.814;11.134;2023-02-28T13:23:58;3.40;58.70
1812;DHT22;904;47.814;11.134;2023-02-28T13:29:34;3.30;58.20
1812;DHT22;904;47.814;11.134;2023-02-28T13:35:42;3.20;58.90
1812;DHT22;904;47.814;11.134;2023-02-28T13:38:39;3.30;59.10
1812;DHT22;904;47.814;11.134;2023-02-28T13:41:44;3.20;59.50
1812;DHT22;904;47.814;11.134;2023-02-28T13:44:12;3.30;59.60
1812;DHT22;904;47.814;11.134;2023-02-28T13:47:23;3.30;59.30
1812;DHT22;904;47.814;11.134;2023-02-28T13:49:54;3.30;59.40
1812;DHT22;904;47.814;11.134;2023-02-28T13:52:23;3.40;59.30
1812;DHT22;904;47.814;11.134;2023-02-28T13:55:14;3.40;59.40
1812;DHT22;904;47.814;11.134;2023-02-28T13:58:07;3.40;59.30
1812;DHT22;904;47.814;11.134;2023-02-28T14:00:48;3.50;59.10
1812;DHT22;904;47.814;11.134;2023-02-28T14:03:32;3.50;58.90
1812;DHT22;904;47.814;11.134;2023-02-28T14:06:15;3.50;58.80
1812;DHT22;904;47.814;11.134;2023-02-28T14:08:53;3.60;58.80
1812;DHT22;904;47.814;11.134;2023-02-28T14:11:26;3.60;58.70
1812;DHT22;904;47.814;11.134;2023-02-28T14:13:54;3.60;58.70
1812;DHT22;904;47.814;11.134;2023-02-28T14:16:23;3.60;58.40
1812;DHT22;904;47.814;11.134;2023-02-28T14:18:57;3.60;58.30
1812;DHT22;904;47.814;11.134;2023-02-28T14:21:27;3.50;59.00
1812;DHT22;904;47.814;11.134;2023-02-28T14:24:09;3.60;59.10
1812;DHT22;904;47.814;11.134;2023-02-28T14:32:54;3.50;58.70
1812;DHT22;904;47.814;11.134;2023-02-28T14:35:40;3.50;58.80
1812;DHT22;904;47.814;11.134;2023-02-28T14:38:16;3.60;58.80
1812;DHT22;904;47.814;11.134;2023-02-28T14:40:45;3.70;58.60
1812;DHT22;904;47.814;11.134;2023-02-28T14:43:20;3.70;58.10
1812;DHT22;904;47.814;11.134;2023-02-28T14:45:50;3.80;58.10
1812;DHT22;904;47.814;11.134;2023-02-28T14:48:19;3.80;57.80
1812;DHT22;904;47.814;11.134;2023-02-28T14:50:53;3.90;57.60
1812;DHT22;904;47.814;11.134;2023-02-28T14:53:23;3.90;57.10
1812;DHT22;904;47.814;11.134;2023-02-28T14:55:52;3.90;57.00
1812;DHT22;904;47.814;11.134;2023-02-28T14:58:25;3.90;56.60
1812;DHT22;904;47.814;11.134;2023-02-28T15:00:53;3.90;56.40
1812;DHT22;904;47.814;11.134;2023-02-28T15:03:23;3.80;56.50
1812;DHT22;904;47.814;11.134;2023-02-28T15:05:55;3.80;56.50
1812;DHT22;904;47.814;11.134;2023-02-28T15:08:23;3.70;56.60
1812;DHT22;904;47.814;11.134;2023-02-28T15:10:54;3.60;57.00
1812;DHT22;904;47.814;11.134;2023-02-28T15:13:21;3.50;57.40
1812;DHT22;904;47.814;11.134;2023-02-28T15:15:52;3.40;57.60
1812;DHT22;904;47.814;11.134;2023-02-28T15:18:30;3.40;57.80
1812;DHT22;904;47.814;11.134;2023-02-28T15:21:03;3.30;58.00
1812;DHT22;904;47.814;11.134;2023-02-28T15:23:35;3.20;58.10
1812;DHT22;904;47.814;11.134;2023-02-28T15:26:03;3.10;58.20
1812;DHT22;904;47.814;11.134;2023-02-28T15:28:31;3.00;58.50
1812;DHT22;904;47.814;11.134;2023-02-28T15:31:00;2.90;58.70
1812;DHT22;904;47.814;11.134;2023-02-28T15:33:28;2.80;59.30
1812;DHT22;904;47.814;11.134;2023-02-28T15:36:12;2.80;59.50
1812;DHT22;904;47.814;11.134;2023-02-28T15:38:50;2.70;59.70
1812;DHT22;904;47.814;11.134;2023-02-28T15:41:26;2.60;59.80
1812;DHT22;904;47.814;11.134;2023-02-28T15:44:16;2.60;60.00
1812;DHT22;904;47.814;11.134;2023-02-28T15:46:53;2.50;60.30
1812;DHT22;904;47.814;11.134;2023-02-28T15:49:21;2.40;60.80
1812;DHT22;904;47.814;11.134;2023-02-28T15:51:51;2.30;61.10
1812;DHT22;904;47.814;11.134;2023-02-28T15:54:21;2.20;61.30
1812;DHT22;904;47.814;11.134;2023-02-28T15:56:51;2.20;61.60
1812;DHT22;904;47.814;11.134;2023-02-28T15:59:22;2.10;62.00
1812;DHT22;904;47.814;11.134;2023-02-28T16:02:11;2.10;62.00
1812;DHT22;904;47.814;11.134;2023-02-28T16:04:54;2.00;62.40
1812;DHT22;904;47.814;11.134;2023-02-28T16:07:23;1.90;63.10
1812;DHT22;904;47.814;11.134;2023-02-28T16:09:51;1.90;63.20
1812;DHT22;904;47.814;11.134;2023-02-28T16:12:19;1.80;63.10
1812;DHT22;904;47.814;11.134;2023-02-28T16:14:48;1.70;63.30
1812;DHT22;904;47.814;11.134;2023-02-28T16:17:20;1.70;63.70
1812;DHT22;904;47.814;11.134;2023-02-28T16:19:48;1.60;64.20
1812;DHT22;904;47.814;11.134;2023-02-28T16:22:15;1.50;64.70
1812;DHT22;904;47.814;11.134;2023-02-28T16:24:44;1.40;64.90
1812;DHT22;904;47.814;11.134;2023-02-28T16:27:18;1.40;65.20
1812;DHT22;904;47.814;11.134;2023-02-28T16:29:45;1.40;65.70
1812;DHT22;904;47.814;11.134;2023-02-28T16:32:14;1.30;65.70
1812;DHT22;904;47.814;11.134;2023-02-28T16:34:43;1.30;66.00
1812;DHT22;904;47.814;11.134;2023-02-28T16:37:15;1.20;66.20
1812;DHT22;904;47.814;11.134;2023-02-28T16:39:45;1.20;66.50
1812;DHT22;904;47.814;11.134;2023-02-28T16:42:16;1.20;66.70
1812;DHT22;904;47.814;11.134;2023-02-28T16:44:48;1.10;67.00
1812;DHT22;904;47.814;11.134;2023-02-28T16:47:15;1.10;67.10
1812;DHT22;904;47.814;11.134;2023-02-28T16:49:41;1.10;67.40
1812;DHT22;904;47.814;11.134;2023-02-28T16:52:09;1.10;67.80
1812;DHT22;904;47.814;11.134;2023-02-28T16:54:37;1.10;68.10
1812;DHT22;904;47.814;11.134;2023-02-28T16:57:06;1.00;68.50
1812;DHT22;904;47.814;11.134;2023-02-28T16:59:33;0.90;68.70
1812;DHT22;904;47.814;11.134;2023-02-28T17:02:00;0.90;69.10
1812;DHT22;904;47.814;11.134;2023-02-28T17:04:27;0.80;69.40
1812;DHT22;904;47.814;11.134;2023-02-28T17:06:54;0.80;69.50
1812;DHT22;904;47.814;11.134;2023-02-28T17:09:23;0.70;69.80
1812;DHT22;904;47.814;11.134;2023-02-28T17:11:50;0.70;70.10